Time;durP1;ratioP1;P1;durP2;ratioP2;P2;SDS_P1;SDS_P2;PMS_P1;PMS_P2;Temp;Humidity;BMP_temperature;BMP_pressure;BME280_temperature;BME280_humidity;BME280_pressure;Samples;Min_cycle;Max_cycle;Signal;HPM_P1;HPM_P2
2021/08/23 00:01:51;;;;;;;;;;;;;;;17.66;87.81;98052.73;1731075;83;20160;-77
2021/08/23 00:04:17;;;;;;;;;;;;;;;17.67;87.60;98049.43;1730797;82;20230;-75
2021/08/23 00:06:42;;;;;;;;;;;;;;;17.65;90.01;98045.65;1730999;82;20865;-75
2021/08/23 00:09:08;;;;;;;;;;;;;;;17.65;89.96;98042.91;1730864;82;20695;-74
2021/08/23 00:11:34;;;;;;;;;;;;;;;17.65;90.54;98047.02;1731199;83;21005;-78
2021/08/23 00:14:00;;;;;;;;;;;;;;;17.60;90.54;98041.70;1730874;82;20222;-74
2021/08/23 00:16:25;;;;;;;;;;;;;;;17.58;89.45;98045.33;1730942;82;20266;-77
2021/08/23 00:18:51;;;;;;;;;;;;;;;17.55;90.39;98038.34;1731065;82;20142;-77
2021/08/23 00:21:25;;;;;;;;;;;;;;;17.53;91.60;98031.83;1731296;82;20254;-75
2021/08/23 00:24:07;;;;;;;;;;;;;;;17.47;92.00;98027.63;1730053;83;21062;-78
2021/08/23 00:26:33;;;;;;;;;;;;;;;17.44;91.72;98021.44;1731154;82;20446;-74
2021/08/23 00:28:59;;;;;;;;;;;;;;;17.41;90.89;98020.14;1730810;82;20147;-74
2021/08/23 00:31:25;;;;;;;;;;;;;;;17.42;89.39;98027.79;1731003;83;20186;-75
2021/08/23 00:33:50;;;;;;;;;;;;;;;17.35;92.12;98021.45;1731283;82;20242;-74
2021/08/23 00:36:16;;;;;;;;;;;;;;;17.35;92.42;98012.44;1731351;82;21951;-75
2021/08/23 00:38:42;;;;;;;;;;;;;;;17.34;94.12;98011.60;1730867;82;20181;-74
2021/08/23 00:41:07;;;;;;;;;;;;;;;17.35;92.74;98005.59;1731460;82;20214;-78
2021/08/23 00:43:33;;;;;;;;;;;;;;;17.33;91.37;98008.62;1731012;82;20666;-78
2021/08/23 00:45:59;;;;;;;;;;;;;;;17.34;92.23;98014.34;1731092;82;20218;-74
2021/08/23 00:48:25;;;;;;;;;;;;;;;17.35;92.94;98020.66;1730769;83;21160;-74
2021/08/23 00:50:51;;;;;;;;;;;;;;;17.37;93.08;98023.30;1730848;83;20225;-78
2021/08/23 00:53:17;;;;;;;;;;;;;;;17.40;92.21;98024.58;1731018;82;20276;-74
2021/08/23 00:55:43;;;;;;;;;;;;;;;17.40;92.13;98021.27;1730949;82;20233;-78
2021/08/23 00:58:09;;;;;;;;;;;;;;;17.37;93.63;98024.67;1731023;83;20403;-73
2021/08/23 01:00:35;;;;;;;;;;;;;;;17.37;92.57;98021.92;1731472;82;21243;-74
2021/08/23 01:03:05;;;;;;;;;;;;;;;17.32;94.00;98033.03;1731016;82;20137;-78
2021/08/23 01:05:31;;;;;;;;;;;;;;;17.34;93.22;98024.49;1730489;82;20140;-74
2021/08/23 01:08:06;;;;;;;;;;;;;;;17.31;93.45;98030.06;1731082;82;20395;-74
2021/08/23 01:10:37;;;;;;;;;;;;;;;17.30;94.54;98027.65;1730477;82;20128;-74
2021/08/23 01:13:05;;;;;;;;;;;;;;;17.35;92.98;98026.13;1730963;82;21106;-78
2021/08/23 01:15:30;;;;;;;;;;;;;;;17.35;91.79;98019.28;1730712;82;20164;-78
2021/08/23 01:17:56;;;;;;;;;;;;;;;17.30;92.94;98023.55;1730931;82;20162;-74
2021/08/23 01:20:22;;;;;;;;;;;;;;;17.30;92.47;98027.65;1730878;83;20233;-74
2021/08/23 01:22:48;;;;;;;;;;;;;;;17.29;93.02;98028.22;1731279;82;20202;-78
2021/08/23 01:25:17;;;;;;;;;;;;;;;17.25;94.33;98024.50;1730863;83;20940;-75
2021/08/23 01:27:46;;;;;;;;;;;;;;;17.24;93.40;98020.16;1731005;83;20146;-78
2021/08/23 01:30:12;;;;;;;;;;;;;;;17.21;94.37;98022.17;1730420;82;20557;-74
2021/08/23 01:32:39;;;;;;;;;;;;;;;17.20;94.15;98013.16;1731397;82;20143;-78
2021/08/23 01:35:05;;;;;;;;;;;;;;;17.22;93.37;98012.83;1730894;82;20150;-78
2021/08/23 01:37:31;;;;;;;;;;;;;;;17.25;89.92;98021.76;1730985;82;20993;-73
2021/08/23 01:39:57;;;;;;;;;;;;;;;17.23;92.21;98016.38;1730649;83;20186;-74
2021/08/23 01:42:23;;;;;;;;;;;;;;;17.25;90.41;98012.17;1731188;82;20209;-73
2021/08/23 01:44:49;;;;;;;;;;;;;;;17.23;90.10;98011.70;1730785;82;20218;-74
2021/08/23 01:47:14;;;;;;;;;;;;;;;17.21;91.49;98007.12;1731112;82;20285;-78
2021/08/23 01:49:40;;;;;;;;;;;;;;;17.24;90.58;98005.66;1730810;83;21751;-73
2021/08/23 01:52:08;;;;;;;;;;;;;;;17.23;90.61;98002.69;1731011;82;20821;-74
2021/08/23 01:54:33;;;;;;;;;;;;;;;17.15;94.18;98006.47;1730606;82;20128;-74
2021/08/23 01:56:59;;;;;;;;;;;;;;;17.17;92.92;97999.30;1731200;82;20166;-78
2021/08/23 01:59:25;;;;;;;;;;;;;;;17.22;93.13;98003.25;1730749;82;20214;-77
2021/08/23 02:01:51;;;;;;;;;;;;;;;17.22;93.42;97994.23;1730898;82;21144;-78
2021/08/23 02:04:16;;;;;;;;;;;;;;;17.19;94.29;97991.02;1730698;82;20195;-78
2021/08/23 02:06:42;;;;;;;;;;;;;;;17.18;93.75;97992.72;1731194;83;20193;-74
2021/08/23 02:09:08;;;;;;;;;;;;;;;17.18;93.05;97987.24;1731205;82;20146;-74
2021/08/23 02:11:34;;;;;;;;;;;;;;;17.13;94.00;97980.55;1731218;82;20156;-78
2021/08/23 02:14:00;;;;;;;;;;;;;;;17.14;93.68;97980.78;1731210;82;21129;-78
2021/08/23 02:16:25;;;;;;;;;;;;;;;17.16;92.75;97973.05;1730930;82;20186;-78
2021/08/23 02:18:51;;;;;;;;;;;;;;;17.18;92.78;97985.88;1730951;82;20264;-77
2021/08/23 02:21:19;;;;;;;;;;;;;;;17.20;92.91;97983.05;1730779;83;20631;-77
2021/08/23 02:23:44;;;;;;;;;;;;;;;17.20;92.99;97984.98;1730737;83;20411;-74
2021/08/23 02:26:10;;;;;;;;;;;;;;;17.19;93.29;97986.91;1710062;83;21764;-78
2021/08/23 02:28:36;;;;;;;;;;;;;;;17.19;92.25;97980.63;1731227;82;20174;-73
2021/08/23 02:31:02;;;;;;;;;;;;;;;17.19;92.79;97976.53;1730848;82;20281;-78
2021/08/23 02:33:28;;;;;;;;;;;;;;;17.15;91.57;97970.88;1730931;83;20149;-78
2021/08/23 02:35:54;;;;;;;;;;;;;;;17.13;91.48;97969.03;1730746;82;20178;-73
2021/08/23 02:38:19;;;;;;;;;;;;;;;17.11;91.28;97969.92;1730858;83;21075;-78
2021/08/23 02:40:45;;;;;;;;;;;;;;;17.10;91.25;97968.89;1730829;82;20174;-78
2021/08/23 02:43:11;;;;;;;;;;;;;;;17.05;91.64;97964.93;1731079;82;20190;-78
2021/08/23 02:45:37;;;;;;;;;;;;;;;17.02;93.32;97962.28;1731488;82;20174;-78
2021/08/23 02:48:03;;;;;;;;;;;;;;;17.04;91.38;97964.13;1730865;83;20186;-73
2021/08/23 02:50:28;;;;;;;;;;;;;;;17.03;93.03;97966.63;1710262;83;21837;-78
2021/08/23 02:52:54;;;;;;;;;;;;;;;17.04;93.75;97960.59;1730985;82;20314;-73
2021/08/23 02:55:20;;;;;;;;;;;;;;;17.06;94.21;97959.70;1731232;82;20202;-78
2021/08/23 02:57:46;;;;;;;;;;;;;;;17.07;93.14;97955.83;1731202;83;20161;-78
2021/08/23 03:00:13;;;;;;;;;;;;;;;17.04;94.89;97953.18;1730854;82;20225;-78
2021/08/23 03:02:39;;;;;;;;;;;;;;;17.04;95.06;97955.92;1731409;82;21749;-78
2021/08/23 03:05:05;;;;;;;;;;;;;;;17.01;95.47;97949.73;1731158;82;20186;-73
2021/08/23 03:07:31;;;;;;;;;;;;;;;17.00;93.31;97945.92;1731059;83;20144;-74
2021/08/23 03:09:57;;;;;;;;;;;;;;;16.95;95.51;97954.31;1731535;82;20195;-73
2021/08/23 03:12:23;;;;;;;;;;;;;;;16.94;93.26;97949.41;1731308;82;20277;-73
2021/08/23 03:14:49;;;;;;;;;;;;;;;16.93;92.64;97949.17;1730952;83;21094;-78
2021/08/23 03:17:14;;;;;;;;;;;;;;;16.93;91.81;97945.06;1737864;82;20241;-73
2021/08/23 03:19:40;;;;;;;;;;;;;;;16.93;93.58;97946.44;1738995;82;20225;-78
2021/08/23 03:22:06;;;;;;;;;;;;;;;16.95;93.33;97942.00;1739319;81;20146;-78
2021/08/23 03:24:31;;;;;;;;;;;;;;;16.92;92.07;97946.20;1738961;82;20244;-73
2021/08/23 03:26:57;;;;;;;;;;;;;;;16.89;91.88;97956.41;1739197;82;21943;-73
2021/08/23 03:29:23;;;;;;;;;;;;;;;16.87;91.42;97961.39;1738874;82;20162;-78
2021/08/23 03:31:49;;;;;;;;;;;;;;;16.88;93.10;97960.27;1739285;82;20265;-78
2021/08/23 03:34:15;;;;;;;;;;;;;;;16.93;93.58;97959.31;1739068;81;20166;-74
2021/08/23 03:36:42;;;;;;;;;;;;;;;16.92;94.74;97963.98;1739037;82;20139;-78
2021/08/23 03:39:08;;;;;;;;;;;;;;;16.97;92.91;97961.63;1739055;81;21104;-73
2021/08/23 03:41:36;;;;;;;;;;;;;;;17.03;92.47;97962.52;1738856;82;20383;-78
2021/08/23 03:44:03;;;;;;;;;;;;;;;17.07;92.63;97964.03;1739057;82;20174;-74
2021/08/23 03:46:32;;;;;;;;;;;;;;;17.09;92.94;97969.45;1739029;82;20126;-74
2021/08/23 03:48:56;;;;;;;;;;;;;;;17.07;93.56;97967.58;1738556;82;20431;-73
2021/08/23 03:51:22;;;;;;;;;;;;;;;17.07;93.21;97965.41;1738979;81;22015;-78
2021/08/23 03:53:47;;;;;;;;;;;;;;;17.09;92.04;97965.34;1738957;81;20174;-74
2021/08/23 03:56:13;;;;;;;;;;;;;;;17.13;90.82;97969.03;1739029;81;20661;-74
2021/08/23 03:58:39;;;;;;;;;;;;;;;17.12;90.58;97970.73;1739019;82;20134;-78
2021/08/23 04:01:05;;;;;;;;;;;;;;;17.14;90.88;97977.48;1739072;81;20218;-74
2021/08/23 04:03:30;;;;;;;;;;;;;;;17.17;90.52;97981.50;1739168;81;21067;-78
2021/08/23 04:05:56;;;;;;;;;;;;;;;17.09;93.75;97976.30;1739082;82;20173;-78
2021/08/23 04:08:22;;;;;;;;;;;;;;;17.10;94.35;97978.47;1739111;82;20280;-78
2021/08/23 04:10:47;;;;;;;;;;;;;;;17.08;92.72;97989.72;1739088;82;20205;-74
2021/08/23 04:13:14;;;;;;;;;;;;;;;17.12;92.04;98002.21;1739087;82;20205;-74
2021/08/23 04:15:40;;;;;;;;;;;;;;;17.13;91.03;98005.98;1738980;82;20679;-75
2021/08/23 04:18:05;;;;;;;;;;;;;;;17.08;93.19;98002.59;1739070;81;20298;-79
2021/08/23 04:20:31;;;;;;;;;;;;;;;16.87;95.13;98009.29;1738899;82;20241;-73
2021/08/23 04:22:57;;;;;;;;;;;;;;;16.74;95.05;98017.06;1738867;81;20186;-81
2021/08/23 04:25:23;;;;;;;;;;;;;;;16.64;95.50;98025.79;1736723;82;20292;-73
2021/08/23 04:27:48;;;;;;;;;;;;;;;16.57;95.21;98019.98;1730970;83;21140;-81
2021/08/23 04:30:14;;;;;;;;;;;;;;;16.49;97.09;98018.59;1731013;82;20269;-80
2021/08/23 04:32:40;;;;;;;;;;;;;;;16.44;96.31;98016.02;1731004;83;20205;-81
2021/08/23 04:35:06;;;;;;;;;;;;;;;16.41;96.58;98015.27;1731005;82;20178;-73
2021/08/23 04:37:32;;;;;;;;;;;;;;;16.47;96.41;98004.44;1731132;83;20427;-80
2021/08/23 04:39:58;;;;;;;;;;;;;;;16.49;96.92;98011.22;1730685;82;21905;-73
2021/08/23 04:42:23;;;;;;;;;;;;;;;16.55;99.08;98003.66;1730983;83;20193;-73
2021/08/23 04:44:49;;;;;;;;;;;;;;;16.57;96.76;98007.67;1730818;83;20189;-81
2021/08/23 04:47:15;;;;;;;;;;;;;;;16.61;96.07;98016.86;1730836;82;20806;-74
2021/08/23 04:49:41;;;;;;;;;;;;;;;16.65;95.60;98023.86;1730790;83;20198;-74
2021/08/23 04:52:06;;;;;;;;;;;;;;;16.68;95.44;98027.91;1730833;83;20732;-80
2021/08/23 04:54:32;;;;;;;;;;;;;;;16.67;96.46;98027.67;1730851;82;20721;-74
2021/08/23 04:56:58;;;;;;;;;;;;;;;16.64;94.82;98023.05;1730717;83;20245;-80
2021/08/23 04:59:23;;;;;;;;;;;;;;;16.68;98.40;98028.71;1730842;83;20153;-80
2021/08/23 05:01:49;;;;;;;;;;;;;;;16.64;97.23;98031.27;1730889;82;20170;-74
2021/08/23 05:04:15;;;;;;;;;;;;;;;16.62;97.60;98034.08;1730893;82;21134;-74
2021/08/23 05:06:41;;;;;;;;;;;;;;;16.61;97.31;98033.84;1730788;83;20162;-80
2021/08/23 05:09:06;;;;;;;;;;;;;;;16.61;97.18;98036.58;1730878;83;20170;-80
2021/08/23 05:11:35;;;;;;;;;;;;;;;16.60;96.51;98044.55;1730937;82;20646;-79
2021/08/23 05:14:00;;;;;;;;;;;;;;;16.62;96.21;98048.56;1730977;83;20088;-79
2021/08/23 05:16:26;;;;;;;;;;;;;;;16.67;96.14;98059.13;1730825;83;21095;-73
2021/08/23 05:18:52;;;;;;;;;;;;;;;16.68;97.53;98053.33;1731951;82;20217;-73
2021/08/23 05:21:18;;;;;;;;;;;;;;;16.75;96.58;98056.98;1743153;82;20213;-74
2021/08/23 05:23:43;;;;;;;;;;;;;;;16.73;97.52;98052.39;1739019;82;20185;-78
2021/08/23 05:26:09;;;;;;;;;;;;;;;16.78;96.52;98048.95;1739031;82;20174;-77
2021/08/23 05:28:35;;;;;;;;;;;;;;;16.80;99.40;98058.20;1739032;82;21146;-73
2021/08/23 05:31:01;;;;;;;;;;;;;;;16.86;97.21;98056.38;1738928;82;20178;-78
2021/08/23 05:33:26;;;;;;;;;;;;;;;16.92;96.71;98063.88;1739081;82;20190;-73
2021/08/23 05:35:52;;;;;;;;;;;;;;;16.93;96.59;98068.78;1739033;82;20262;-73
2021/08/23 05:38:18;;;;;;;;;;;;;;;16.94;97.36;98069.83;1739146;81;20146;-73
2021/08/23 05:40:44;;;;;;;;;;;;;;;16.94;97.80;98067.09;1739194;82;21085;-73
2021/08/23 05:43:09;;;;;;;;;;;;;;;17.00;96.83;98075.38;1739016;82;20241;-73
2021/08/23 05:45:35;;;;;;;;;;;;;;;16.99;96.65;98071.03;1739121;82;20229;-73
2021/08/23 05:48:01;;;;;;;;;;;;;;;17.01;96.15;98068.00;1738762;81;20780;-73
2021/08/23 05:50:27;;;;;;;;;;;;;;;17.05;96.00;98078.53;1739042;82;20150;-73
2021/08/23 05:52:52;;;;;;;;;;;;;;;17.03;95.70;98082.97;1739048;82;21040;-73
2021/08/23 05:55:18;;;;;;;;;;;;;;;17.04;95.49;98085.94;1739049;81;20205;-77
2021/08/23 05:57:44;;;;;;;;;;;;;;;16.99;95.78;98092.92;1739172;82;20181;-76
2021/08/23 06:00:13;;;;;;;;;;;;;;;16.98;96.48;98090.52;1739093;81;20146;-72
2021/08/23 06:02:39;;;;;;;;;;;;;;;16.88;96.56;98091.62;1739030;82;20148;-72
2021/08/23 06:05:05;;;;;;;;;;;;;;;16.89;97.24;98089.13;1739072;81;21012;-77
2021/08/23 06:07:30;;;;;;;;;;;;;;;16.94;99.59;98083.52;1738687;82;20136;-73
2021/08/23 06:09:56;;;;;;;;;;;;;;;16.97;98.83;98085.60;1738935;81;20193;-73
2021/08/23 06:12:22;;;;;;;;;;;;;;;17.00;98.34;98086.88;1738883;82;20177;-77
2021/08/23 06:14:48;;;;;;;;;;;;;;;17.05;100.00;98084.81;1738914;82;20170;-72
2021/08/23 06:17:13;;;;;;;;;;;;;;;17.06;98.97;98089.16;1738910;82;22000;-76
2021/08/23 06:19:39;;;;;;;;;;;;;;;17.05;99.32;98088.11;1740483;82;20177;-72
2021/08/23 06:22:05;;;;;;;;;;;;;;;17.06;99.82;98089.72;1740185;82;20201;-77
2021/08/23 06:24:30;;;;;;;;;;;;;;;17.10;100.00;98092.08;1738918;81;20130;-73
2021/08/23 06:26:56;;;;;;;;;;;;;;;17.16;100.00;98088.84;1738998;81;20233;-77
2021/08/23 06:29:22;;;;;;;;;;;;;;;17.22;98.93;98087.33;1738867;82;21087;-72
2021/08/23 06:31:48;;;;;;;;;;;;;;;17.17;98.74;98089.64;1738902;82;20249;-72
2021/08/23 06:34:13;;;;;;;;;;;;;;;17.17;98.06;98082.80;1738865;82;20233;-77
2021/08/23 06:36:42;;;;;;;;;;;;;;;17.23;98.12;98084.26;1738946;82;20173;-72
2021/08/23 06:39:07;;;;;;;;;;;;;;;17.29;97.51;98080.81;1738783;81;20156;-77
2021/08/23 06:41:33;;;;;;;;;;;;;;;17.35;97.28;98076.23;1739039;81;20611;-76
2021/08/23 06:43:58;;;;;;;;;;;;;;;17.39;96.94;98083.22;1738812;82;20266;-77
2021/08/23 06:46:24;;;;;;;;;;;;;;;17.43;96.87;98082.27;1738926;81;20233;-73
2021/08/23 06:48:50;;;;;;;;;;;;;;;17.46;96.69;98078.07;1738802;82;20251;-77
2021/08/23 06:51:19;;;;;;;;;;;;;;;17.47;96.50;98082.42;1739022;82;20190;-72
2021/08/23 06:53:43;;;;;;;;;;;;;;;17.48;96.96;98074.44;1738556;82;21784;-72
2021/08/23 06:56:09;;;;;;;;;;;;;;;17.43;96.88;98079.53;1738862;82;20213;-77
2021/08/23 06:58:35;;;;;;;;;;;;;;;17.43;96.97;98078.16;1738942;82;20157;-72
2021/08/23 07:01:01;;;;;;;;;;;;;;;17.48;96.80;98084.83;1739103;82;20158;-73
2021/08/23 07:03:26;;;;;;;;;;;;;;;17.49;96.62;98084.26;1738927;81;20150;-73
2021/08/23 07:05:52;;;;;;;;;;;;;;;17.57;96.59;98084.82;1739064;81;21141;-73
2021/08/23 07:08:18;;;;;;;;;;;;;;;17.64;96.63;98081.59;1738826;82;20198;-73
2021/08/23 07:10:44;;;;;;;;;;;;;;;17.64;96.66;98086.52;1739120;81;20186;-72
2021/08/23 07:13:09;;;;;;;;;;;;;;;17.69;97.06;98080.08;1739019;82;20142;-73
2021/08/23 07:15:35;;;;;;;;;;;;;;;17.65;96.66;98079.09;1739131;82;20158;-72
2021/08/23 07:18:01;;;;;;;;;;;;;;;17.69;96.66;98074.59;1739091;82;21150;-72
2021/08/23 07:20:27;;;;;;;;;;;;;;;17.72;96.69;98072.59;1739544;81;20166;-76
2021/08/23 07:22:52;;;;;;;;;;;;;;;17.76;96.80;98070.23;1738827;82;20288;-73
2021/08/23 07:25:18;;;;;;;;;;;;;;;17.74;96.66;98068.95;1739103;82;20193;-73
2021/08/23 07:27:44;;;;;;;;;;;;;;;17.82;96.54;98071.44;1738839;82;20150;-75
2021/08/23 07:30:10;;;;;;;;;;;;;;;17.82;96.26;98076.92;1739108;81;21076;-76
2021/08/23 07:32:36;;;;;;;;;;;;;;;17.83;96.11;98082.08;1738661;82;20152;-76
2021/08/23 07:35:03;;;;;;;;;;;;;;;17.87;96.13;98075.40;1739125;81;20236;-74
2021/08/23 07:37:32;;;;;;;;;;;;;;;17.93;96.27;98076.81;1738807;82;20153;-74
2021/08/23 07:39:56;;;;;;;;;;;;;;;17.93;96.28;98081.73;1738716;82;20431;-76
2021/08/23 07:42:22;;;;;;;;;;;;;;;17.99;96.34;98078.26;1739047;82;21211;-74
2021/08/23 07:44:48;;;;;;;;;;;;;;;18.07;96.41;98080.73;1739078;81;20197;-76
2021/08/23 07:47:14;;;;;;;;;;;;;;;18.15;96.45;98082.66;1739099;82;20221;-76
2021/08/23 07:49:39;;;;;;;;;;;;;;;18.18;96.19;98079.24;1738999;81;20179;-76
2021/08/23 07:52:05;;;;;;;;;;;;;;;18.23;95.70;98072.22;1739088;81;20190;-74
2021/08/23 07:54:35;;;;;;;;;;;;;;;18.23;95.50;98073.02;1738920;82;21042;-74
2021/08/23 07:56:59;;;;;;;;;;;;;;;18.26;96.02;98068.81;1738563;82;20160;-75
2021/08/23 07:59:24;;;;;;;;;;;;;;;18.23;95.75;98064.80;1739146;82;20166;-74
2021/08/23 08:01:50;;;;;;;;;;;;;;;18.21;95.32;98063.52;1739035;81;20146;-74
2021/08/23 08:04:16;;;;;;;;;;;;;;;18.24;95.53;98062.86;1739038;82;20146;-76
2021/08/23 08:06:44;;;;;;;;;;;;;;;18.23;95.33;98067.54;1739146;81;21160;-74
2021/08/23 08:09:11;;;;;;;;;;;;;;;18.26;95.23;98075.09;1738925;81;20152;-74
2021/08/23 08:11:36;;;;;;;;;;;;;;;18.32;95.09;98079.84;1739129;81;20179;-76
2021/08/23 08:14:02;;;;;;;;;;;;;;;18.32;95.06;98086.14;1739079;82;20161;-77
2021/08/23 08:16:28;;;;;;;;;;;;;;;18.33;95.03;98085.00;1739116;81;20144;-74
2021/08/23 08:18:55;;;;;;;;;;;;;;;18.37;95.28;98085.70;1739132;82;21086;-76
2021/08/23 08:21:22;;;;;;;;;;;;;;;18.39;95.06;98090.32;1740044;82;20449;-76
2021/08/23 08:23:53;;;;;;;;;;;;;;;18.37;94.94;98090.63;1739162;81;20172;-74
2021/08/23 08:26:15;;;;;;;;;;;;;;;18.39;94.87;98088.37;1738717;82;20132;-76
2021/08/23 08:28:41;;;;;;;;;;;;;;;18.39;94.82;98093.06;1739096;81;20261;-75
2021/08/23 08:31:07;;;;;;;;;;;;;;;18.41;94.50;98099.02;1739054;82;21592;-75
2021/08/23 08:33:33;;;;;;;;;;;;;;;18.43;94.56;98100.86;1738923;82;20431;-77
2021/08/23 08:35:59;;;;;;;;;;;;;;;18.46;94.73;98095.53;1739071;82;20185;-77
2021/08/23 08:38:25;;;;;;;;;;;;;;;18.52;94.41;98101.05;1739041;81;20120;-76
2021/08/23 08:40:51;;;;;;;;;;;;;;;18.55;94.38;98097.67;1717990;82;20195;-75
2021/08/23 08:43:17;;;;;;;;;;;;;;;18.62;94.38;98097.13;1738882;82;20680;-76
2021/08/23 08:45:45;;;;;;;;;;;;;;;18.70;93.85;98101.80;1739204;82;20817;-77
2021/08/23 08:48:11;;;;;;;;;;;;;;;18.82;93.72;98096.43;1738852;81;20123;-75
2021/08/23 08:50:37;;;;;;;;;;;;;;;18.96;93.09;98096.17;1739125;81;20225;-76
2021/08/23 08:53:06;;;;;;;;;;;;;;;19.10;92.56;98095.93;1738781;81;20152;-77
2021/08/23 08:55:36;;;;;;;;;;;;;;;19.20;93.10;98091.41;1739305;81;21208;-74
2021/08/23 08:58:05;;;;;;;;;;;;;;;19.34;93.13;98094.71;1738773;81;20128;-74
2021/08/23 09:00:30;;;;;;;;;;;;;;;19.37;92.67;98094.59;1739288;81;20129;-77
2021/08/23 09:02:56;;;;;;;;;;;;;;;19.36;93.02;98095.74;1738949;82;20146;-75
2021/08/23 09:05:22;;;;;;;;;;;;;;;19.34;93.03;98092.53;1739211;82;20162;-77
2021/08/23 09:07:48;;;;;;;;;;;;;;;19.37;93.51;98094.59;1738885;81;21132;-76
2021/08/23 09:10:24;;;;;;;;;;;;;;;19.32;92.74;98092.07;1718086;82;20131;-74
2021/08/23 09:13:04;;;;;;;;;;;;;;;19.41;92.52;98092.23;1739025;81;20136;-74
2021/08/23 09:15:30;;;;;;;;;;;;;;;19.59;92.96;98086.63;1739116;81;20135;-77
2021/08/23 09:18:02;;;;;;;;;;;;;;;19.69;91.72;98088.37;1738828;81;20218;-75
2021/08/23 09:20:27;;;;;;;;;;;;;;;19.85;91.70;98087.75;1739042;82;21065;-75
2021/08/23 09:22:53;;;;;;;;;;;;;;;19.99;91.77;98083.53;1738732;81;20231;-75
2021/08/23 09:25:23;;;;;;;;;;;;;;;19.97;90.42;98085.83;1738638;82;20201;-75
2021/08/23 09:27:48;;;;;;;;;;;;;;;19.93;87.85;98089.61;1730649;83;20128;-78
2021/08/23 09:30:14;;;;;;;;;;;;;;;19.91;89.37;98089.13;1731108;82;20213;-79
2021/08/23 09:32:48;;;;;;;;;;;;;;;19.92;90.72;98091.56;1710241;82;21121;-79
2021/08/23 09:35:29;;;;;;;;;;;;;;;19.93;90.51;98089.03;1731284;82;20152;-79
2021/08/23 09:37:55;;;;;;;;;;;;;;;20.08;89.40;98083.47;1731141;82;20136;-75
2021/08/23 09:40:27;;;;;;;;;;;;;;;20.10;88.88;98084.50;1730494;82;20321;-75
2021/08/23 09:42:59;;;;;;;;;;;;;;;20.13;89.15;98077.73;1730707;82;20164;-74
2021/08/23 09:45:25;;;;;;;;;;;;;;;20.04;88.69;98075.66;1731182;82;21058;-75
2021/08/23 09:48:02;;;;;;;;;;;;;;;20.05;89.37;98067.63;1730804;82;20222;-75
2021/08/23 09:50:43;;;;;;;;;;;;;;;20.07;88.96;98072.21;1730906;82;20384;-75
2021/08/23 09:53:13;;;;;;;;;;;;;;;20.12;89.15;98076.70;1730794;83;20128;-79
2021/08/23 09:55:40;;;;;;;;;;;;;;;20.10;89.11;98074.30;1730940;83;20132;-79
2021/08/23 09:58:07;;;;;;;;;;;;;;;20.13;88.64;98074.98;1730209;83;20992;-75
2021/08/23 10:00:33;;;;;;;;;;;;;;;20.18;89.28;98073.97;1728967;82;20118;-75
2021/08/23 10:02:59;;;;;;;;;;;;;;;20.17;88.53;98077.88;1729149;82;20190;-75
2021/08/23 10:05:25;;;;;;;;;;;;;;;20.16;88.61;98074.87;1731024;82;20143;-75
2021/08/23 10:07:51;;;;;;;;;;;;;;;20.16;89.15;98076.23;1731040;82;20142;-75
2021/08/23 10:10:17;;;;;;;;;;;;;;;20.08;88.98;98071.64;1731309;82;21130;-79
2021/08/23 10:12:43;;;;;;;;;;;;;;;20.02;89.09;98076.57;1730959;82;20143;-79
2021/08/23 10:15:09;;;;;;;;;;;;;;;19.87;88.37;98071.14;1731057;82;20185;-75
2021/08/23 10:17:37;;;;;;;;;;;;;;;19.90;88.68;98072.39;1730278;82;20144;-75
2021/08/23 10:20:04;;;;;;;;;;;;;;;19.90;88.19;98074.57;1730910;82;20196;-79
2021/08/23 10:22:32;;;;;;;;;;;;;;;19.68;87.31;98070.85;1730866;82;21968;-79
2021/08/23 10:24:57;;;;;;;;;;;;;;;19.66;87.14;98073.94;1730620;83;20124;-75
2021/08/23 10:27:23;;;;;;;;;;;;;;;19.74;87.63;98073.63;1730809;83;20190;-79
2021/08/23 10:29:49;;;;;;;;;;;;;;;19.81;87.86;98079.36;1730758;82;20139;-79
2021/08/23 10:32:15;;;;;;;;;;;;;;;19.85;87.59;98076.18;1730963;82;20170;-74
2021/08/23 10:34:44;;;;;;;;;;;;;;;19.85;86.89;98077.55;1730834;82;21097;-74
2021/08/23 10:37:18;;;;;;;;;;;;;;;19.87;86.73;98079.39;1730777;83;20132;-79
2021/08/23 10:39:44;;;;;;;;;;;;;;;19.89;84.97;98075.72;1730825;82;20415;-74
2021/08/23 10:42:11;;;;;;;;;;;;;;;19.92;84.12;98078.38;1731234;82;20733;-79
2021/08/23 10:44:37;;;;;;;;;;;;;;;20.02;87.39;98073.82;1730831;82;20144;-80
2021/08/23 10:47:10;;;;;;;;;;;;;;;19.87;86.60;98071.14;1730746;83;21094;-79
2021/08/23 10:49:44;;;;;;;;;;;;;;;19.82;86.49;98066.41;1730954;82;20128;-74
2021/08/23 10:52:11;;;;;;;;;;;;;;;19.73;86.46;98070.63;1731010;82;20183;-79
2021/08/23 10:54:42;;;;;;;;;;;;;;;19.78;86.64;98062.75;1730395;83;20144;-79
2021/08/23 10:57:09;;;;;;;;;;;;;;;19.87;86.81;98059.34;1730969;83;20177;-74
2021/08/23 10:59:40;;;;;;;;;;;;;;;20.00;87.29;98068.67;1730884;82;21118;-74
2021/08/23 11:02:05;;;;;;;;;;;;;;;19.87;85.11;98064.27;1730924;83;20137;-79
2021/08/23 11:04:34;;;;;;;;;;;;;;;19.78;83.14;98064.92;1730886;82;20167;-79
2021/08/23 11:07:02;;;;;;;;;;;;;;;19.70;82.90;98059.74;1730339;83;20169;-78
2021/08/23 11:09:33;;;;;;;;;;;;;;;19.78;85.00;98055.88;1730828;82;20514;-75
2021/08/23 11:12:12;;;;;;;;;;;;;;;19.85;85.62;98057.50;1729403;82;21229;-79
2021/08/23 11:14:46;;;;;;;;;;;;;;;19.77;85.61;98048.20;1730200;83;20141;-75
2021/08/23 11:17:11;;;;;;;;;;;;;;;19.84;84.50;98042.16;1731318;82;20153;-78
2021/08/23 11:19:38;;;;;;;;;;;;;;;19.87;84.96;98048.34;1731227;82;20230;-74
2021/08/23 11:22:04;;;;;;;;;;;;;;;19.93;86.67;98045.61;1740386;82;20163;-78
2021/08/23 11:24:34;;;;;;;;;;;;;;;19.85;85.74;98045.94;1739062;82;21130;-79
2021/08/23 11:27:02;;;;;;;;;;;;;;;19.83;84.33;98050.17;1739150;81;20135;-75
2021/08/23 11:29:28;;;;;;;;;;;;;;;19.82;84.12;98043.84;1718125;82;20132;-79
2021/08/23 11:32:01;;;;;;;;;;;;;;;19.83;83.80;98037.80;1739191;82;20485;-75
2021/08/23 11:34:27;;;;;;;;;;;;;;;19.84;85.94;98035.28;1739081;81;20143;-75
2021/08/23 11:36:54;;;;;;;;;;;;;;;19.73;84.40;98036.27;1739213;82;21701;-74
2021/08/23 11:39:19;;;;;;;;;;;;;;;19.76;84.18;98034.80;1718475;82;20139;-79
2021/08/23 11:42:00;;;;;;;;;;;;;;;19.81;84.37;98041.44;1738986;82;20249;-78
2021/08/23 11:44:26;;;;;;;;;;;;;;;19.91;85.79;98035.50;1739086;81;20127;-75
2021/08/23 11:46:56;;;;;;;;;;;;;;;19.99;85.52;98040.91;1739003;82;20164;-79
2021/08/23 11:49:34;;;;;;;;;;;;;;;20.12;86.18;98040.95;1739051;81;21275;-75
2021/08/23 11:52:14;;;;;;;;;;;;;;;20.09;85.56;98038.31;1738037;81;20152;-79
2021/08/23 11:54:41;;;;;;;;;;;;;;;20.18;85.24;98045.09;1738966;81;20419;-79
2021/08/23 11:57:07;;;;;;;;;;;;;;;20.21;81.30;98042.45;1739107;81;20148;-79
2021/08/23 11:59:33;;;;;;;;;;;;;;;20.37;81.42;98036.27;1738985;82;20213;-74
2021/08/23 12:02:13;;;;;;;;;;;;;;;20.44;82.76;98033.80;1739253;82;21099;-74
2021/08/23 12:04:39;;;;;;;;;;;;;;;20.42;82.19;98032.70;1738867;82;20454;-79
2021/08/23 12:07:05;;;;;;;;;;;;;;;20.59;82.96;98036.41;1739113;81;20135;-75
2021/08/23 12:09:31;;;;;;;;;;;;;;;20.53;82.60;98036.66;1738875;82;20132;-74
2021/08/23 12:11:57;;;;;;;;;;;;;;;20.60;83.00;98038.84;1739342;81;20245;-74
2021/08/23 12:14:28;;;;;;;;;;;;;;;20.81;80.94;98034.56;1739079;81;21087;-75
2021/08/23 12:16:53;;;;;;;;;;;;;;;21.11;81.12;98038.64;1739093;82;20430;-74
2021/08/23 12:19:19;;;;;;;;;;;;;;;21.38;78.71;98035.72;1738958;81;20185;-79
2021/08/23 12:21:46;;;;;;;;;;;;;;;21.58;77.33;98040.00;1741672;81;20131;-79
2021/08/23 12:24:19;;;;;;;;;;;;;;;21.77;75.49;98026.92;1719997;82;20430;-79
2021/08/23 12:26:54;;;;;;;;;;;;;;;22.15;77.14;98017.53;1749508;81;21138;-79
2021/08/23 12:29:23;;;;;;;;;;;;;;;22.36;78.06;98011.73;1749163;82;20431;-79
2021/08/23 12:32:00;;;;;;;;;;;;;;;22.47;75.92;98010.05;1745864;81;20429;-78
2021/08/23 12:34:28;;;;;;;;;;;;;;;22.46;73.29;98011.18;1717571;82;20148;-75
2021/08/23 12:37:01;;;;;;;;;;;;;;;22.58;74.41;98002.01;1738706;82;20427;-75
2021/08/23 12:39:27;;;;;;;;;;;;;;;22.71;73.96;98003.48;1739068;82;21154;-78
2021/08/23 12:41:53;;;;;;;;;;;;;;;22.81;74.50;98009.82;1739269;82;20166;-79
2021/08/23 12:44:19;;;;;;;;;;;;;;;22.64;70.51;98007.45;1738797;81;20542;-79